sensor_id;sensor_type;location;lat;lon;timestamp;P1;P2;P0
73623;PMS5003;61921;53.226;-1.296;2022-12-16T00:01:09;53;44;
73623;PMS5003;61921;53.226;-1.296;2022-12-16T00:03:33;45;44;
73623;PMS5003;61921;53.226;-1.296;2022-12-16T00:05:59;34;32;
73623;PMS5003;61921;53.226;-1.296;2022-12-16T00:08:24;39;33;
73623;PMS5003;61921;53.226;-1.296;2022-12-16T00:10:50;33;32;
73623;PMS5003;61921;53.226;-1.296;2022-12-16T00:13:15;38;36;
73623;PMS5003;61921;53.226;-1.296;2022-12-16T00:15:40;40;37;
73623;PMS5003;61921;53.226;-1.296;2022-12-16T00:18:06;34;29;
73623;PMS5003;61921;53.226;-1.296;2022-12-16T00:20:30;49;36;
73623;PMS5003;61921;53.226;-1.296;2022-12-16T00:22:56;35;35;
73623;PMS5003;61921;53.226;-1.296;2022-12-16T00:25:21;35;30;
73623;PMS5003;61921;53.226;-1.296;2022-12-16T00:27:47;38;33;
73623;PMS5003;61921;53.226;-1.296;2022-12-16T00:30:13;35;30;
73623;PMS5003;61921;53.226;-1.296;2022-12-16T00:32:38;33;29;
73623;PMS5003;61921;53.226;-1.296;2022-12-16T00:35:03;35;33;
73623;PMS5003;61921;53.226;-1.296;2022-12-16T00:37:29;33;30;
73623;PMS5003;61921;53.226;-1.296;2022-12-16T00:39:54;38;30;
73623;PMS5003;61921;53.226;-1.296;2022-12-16T00:42:19;34;30;
73623;PMS5003;61921;53.226;-1.296;2022-12-16T00:44:45;34;30;
73623;PMS5003;61921;53.226;-1.296;2022-12-16T00:47:10;41;34;
73623;PMS5003;61921;53.226;-1.296;2022-12-16T00:49:36;33;30;
73623;PMS5003;61921;53.226;-1.296;2022-12-16T00:52:01;29;24;
73623;PMS5003;61921;53.226;-1.296;2022-12-16T00:54:27;25;25;
73623;PMS5003;61921;53.226;-1.296;2022-12-16T00:56:52;32;27;
73623;PMS5003;61921;53.226;-1.296;2022-12-16T00:59:17;28;24;
73623;PMS5003;61921;53.226;-1.296;2022-12-16T01:01:43;30;28;
73623;PMS5003;61921;53.226;-1.296;2022-12-16T01:04:08;31;27;
73623;PMS5003;61921;53.226;-1.296;2022-12-16T01:06:33;31;31;
73623;PMS5003;61921;53.226;-1.296;2022-12-16T01:08:59;40;35;
73623;PMS5003;61921;53.226;-1.296;2022-12-16T01:11:24;51;47;
73623;PMS5003;61921;53.226;-1.296;2022-12-16T01:13:50;43;42;
73623;PMS5003;61921;53.226;-1.296;2022-12-16T01:16:15;54;44;
73623;PMS5003;61921;53.226;-1.296;2022-12-16T01:18:41;47;37;
73623;PMS5003;61921;53.226;-1.296;2022-12-16T01:21:06;47;44;
73623;PMS5003;61921;53.226;-1.296;2022-12-16T01:23:31;44;37;
73623;PMS5003;61921;53.226;-1.296;2022-12-16T01:25:57;47;39;
73623;PMS5003;61921;53.226;-1.296;2022-12-16T01:28:22;46;37;
73623;PMS5003;61921;53.226;-1.296;2022-12-16T01:30:47;46;41;
73623;PMS5003;61921;53.226;-1.296;2022-12-16T01:33:13;42;37;
73623;PMS5003;61921;53.226;-1.296;2022-12-16T01:35:38;36;32;
73623;PMS5003;61921;53.226;-1.296;2022-12-16T01:38:04;26;26;
73623;PMS5003;61921;53.226;-1.296;2022-12-16T01:40:30;33;24;
73623;PMS5003;61921;53.226;-1.296;2022-12-16T01:42:56;23;22;
73623;PMS5003;61921;53.226;-1.296;2022-12-16T01:47:47;22;18;
73623;PMS5003;61921;53.226;-1.296;2022-12-16T01:50:13;23;21;
73623;PMS5003;61921;53.226;-1.296;2022-12-16T01:52:38;38;32;
73623;PMS5003;61921;53.226;-1.296;2022-12-16T01:55:05;22;19;
73623;PMS5003;61921;53.226;-1.296;2022-12-16T01:57:29;19;16;
73623;PMS5003;61921;53.226;-1.296;2022-12-16T01:59:54;16;14;
73623;PMS5003;61921;53.226;-1.296;2022-12-16T02:02:20;18;14;
73623;PMS5003;61921;53.226;-1.296;2022-12-16T02:04:45;19;16;
73623;PMS5003;61921;53.226;-1.296;2022-12-16T02:07:10;17;16;
73623;PMS5003;61921;53.226;-1.296;2022-12-16T02:09:35;14;14;
73623;PMS5003;61921;53.226;-1.296;2022-12-16T02:12:06;18;13;
73623;PMS5003;61921;53.226;-1.296;2022-12-16T02:14:33;21;18;
73623;PMS5003;61921;53.226;-1.296;2022-12-16T02:16:54;18;17;
73623;PMS5003;61921;53.226;-1.296;2022-12-16T02:19:26;19;13;
73623;PMS5003;61921;53.226;-1.296;2022-12-16T02:21:46;19;18;
73623;PMS5003;61921;53.226;-1.296;2022-12-16T02:24:16;18;17;
73623;PMS5003;61921;53.226;-1.296;2022-12-16T02:26:43;21;18;
73623;PMS5003;61921;53.226;-1.296;2022-12-16T02:29:08;17;17;
73623;PMS5003;61921;53.226;-1.296;2022-12-16T02:31:27;20;18;
73623;PMS5003;61921;53.226;-1.296;2022-12-16T02:33:59;21;19;
73623;PMS5003;61921;53.226;-1.296;2022-12-16T02:36:24;30;28;
73623;PMS5003;61921;53.226;-1.296;2022-12-16T02:38:46;29;22;
73623;PMS5003;61921;53.226;-1.296;2022-12-16T02:41:10;22;20;
73623;PMS5003;61921;53.226;-1.296;2022-12-16T02:43:40;20;17;
73623;PMS5003;61921;53.226;-1.296;2022-12-16T02:46:00;23;18;
73623;PMS5003;61921;53.226;-1.296;2022-12-16T02:48:26;17;17;
73623;PMS5003;61921;53.226;-1.296;2022-12-16T02:50:51;16;13;
73623;PMS5003;61921;53.226;-1.296;2022-12-16T02:53:16;15;12;
73623;PMS5003;61921;53.226;-1.296;2022-12-16T02:55:43;16;16;
73623;PMS5003;61921;53.226;-1.296;2022-12-16T02:58:09;16;15;
73623;PMS5003;61921;53.226;-1.296;2022-12-16T03:00:34;21;18;
73623;PMS5003;61921;53.226;-1.296;2022-12-16T03:02:59;16;16;
73623;PMS5003;61921;53.226;-1.296;2022-12-16T03:05:24;18;17;
73623;PMS5003;61921;53.226;-1.296;2022-12-16T03:07:49;14;13;
73623;PMS5003;61921;53.226;-1.296;2022-12-16T03:10:15;16;13;
73623;PMS5003;61921;53.226;-1.296;2022-12-16T03:12:41;13;13;
73623;PMS5003;61921;53.226;-1.296;2022-12-16T03:15:06;17;16;
73623;PMS5003;61921;53.226;-1.296;2022-12-16T03:17:31;22;20;
73623;PMS5003;61921;53.226;-1.296;2022-12-16T03:20:00;22;21;
73623;PMS5003;61921;53.226;-1.296;2022-12-16T03:22:23;20;13;
73623;PMS5003;61921;53.226;-1.296;2022-12-16T03:24:48;15;13;
73623;PMS5003;61921;53.226;-1.296;2022-12-16T03:27:24;17;16;
73623;PMS5003;61921;53.226;-1.296;2022-12-16T03:29:40;20;16;
73623;PMS5003;61921;53.226;-1.296;2022-12-16T03:32:06;21;16;
73623;PMS5003;61921;53.226;-1.296;2022-12-16T03:34:31;21;14;
73623;PMS5003;61921;53.226;-1.296;2022-12-16T03:36:58;15;15;
73623;PMS5003;61921;53.226;-1.296;2022-12-16T03:39:22;13;13;
73623;PMS5003;61921;53.226;-1.296;2022-12-16T03:41:48;18;16;
73623;PMS5003;61921;53.226;-1.296;2022-12-16T03:44:13;20;13;
73623;PMS5003;61921;53.226;-1.296;2022-12-16T03:46:38;18;13;
73623;PMS5003;61921;53.226;-1.296;2022-12-16T03:49:03;22;17;
73623;PMS5003;61921;53.226;-1.296;2022-12-16T03:51:29;13;13;
73623;PMS5003;61921;53.226;-1.296;2022-12-16T03:53:54;17;16;
73623;PMS5003;61921;53.226;-1.296;2022-12-16T03:56:19;25;17;
73623;PMS5003;61921;53.226;-1.296;2022-12-16T03:58:45;15;15;
73623;PMS5003;61921;53.226;-1.296;2022-12-16T04:01:10;20;13;
73623;PMS5003;61921;53.226;-1.296;2022-12-16T04:03:36;15;15;
73623;PMS5003;61921;53.226;-1.296;2022-12-16T04:06:02;24;20;
73623;PMS5003;61921;53.226;-1.296;2022-12-16T04:08:27;25;20;
73623;PMS5003;61921;53.226;-1.296;2022-12-16T04:10:53;21;19;
73623;PMS5003;61921;53.226;-1.296;2022-12-16T04:13:18;20;18;
73623;PMS5003;61921;53.226;-1.296;2022-12-16T04:15:44;24;21;
73623;PMS5003;61921;53.226;-1.296;2022-12-16T04:18:11;21;20;
73623;PMS5003;61921;53.226;-1.296;2022-12-16T04:20:36;26;21;
73623;PMS5003;61921;53.226;-1.296;2022-12-16T04:23:00;24;15;
73623;PMS5003;61921;53.226;-1.296;2022-12-16T04:25:26;17;15;
73623;PMS5003;61921;53.226;-1.296;2022-12-16T04:27:51;16;15;
73623;PMS5003;61921;53.226;-1.296;2022-12-16T04:30:17;12;12;
73623;PMS5003;61921;53.226;-1.296;2022-12-16T04:32:42;18;11;
73623;PMS5003;61921;53.226;-1.296;2022-12-16T04:35:07;13;11;
73623;PMS5003;61921;53.226;-1.296;2022-12-16T04:37:33;12;11;
73623;PMS5003;61921;53.226;-1.296;2022-12-16T04:39:58;15;10;
73623;PMS5003;61921;53.226;-1.296;2022-12-16T04:42:24;13;8;
73623;PMS5003;61921;53.226;-1.296;2022-12-16T04:44:49;15;11;
73623;PMS5003;61921;53.226;-1.296;2022-12-16T04:47:14;23;18;
73623;PMS5003;61921;53.226;-1.296;2022-12-16T04:49:39;13;11;
73623;PMS5003;61921;53.226;-1.296;2022-12-16T04:52:04;11;11;
73623;PMS5003;61921;53.226;-1.296;2022-12-16T04:54:30;15;11;
73623;PMS5003;61921;53.226;-1.296;2022-12-16T04:56:56;16;12;
73623;PMS5003;61921;53.226;-1.296;2022-12-16T04:59:22;10;10;
73623;PMS5003;61921;53.226;-1.296;2022-12-16T05:01:48;16;12;
73623;PMS5003;61921;53.226;-1.296;2022-12-16T05:04:14;12;12;
73623;PMS5003;61921;53.226;-1.296;2022-12-16T05:06:40;12;10;
73623;PMS5003;61921;53.226;-1.296;2022-12-16T05:09:05;12;12;
73623;PMS5003;61921;53.226;-1.296;2022-12-16T05:11:30;16;13;
73623;PMS5003;61921;53.226;-1.296;2022-12-16T05:13:56;15;15;
73623;PMS5003;61921;53.226;-1.296;2022-12-16T05:16:22;10;10;
73623;PMS5003;61921;53.226;-1.296;2022-12-16T05:18:48;13;8;
73623;PMS5003;61921;53.226;-1.296;2022-12-16T05:21:14;8;8;
73623;PMS5003;61921;53.226;-1.296;2022-12-16T05:23:39;17;11;
73623;PMS5003;61921;53.226;-1.296;2022-12-16T05:26:05;11;10;
73623;PMS5003;61921;53.226;-1.296;2022-12-16T05:28:30;12;11;
73623;PMS5003;61921;53.226;-1.296;2022-12-16T05:30:56;11;10;
73623;PMS5003;61921;53.226;-1.296;2022-12-16T05:33:21;13;12;
73623;PMS5003;61921;53.226;-1.296;2022-12-16T05:35:47;15;12;
73623;PMS5003;61921;53.226;-1.296;2022-12-16T05:38:13;13;10;
73623;PMS5003;61921;53.226;-1.296;2022-12-16T05:40:39;12;11;
73623;PMS5003;61921;53.226;-1.296;2022-12-16T05:43:03;11;10;
73623;PMS5003;61921;53.226;-1.296;2022-12-16T05:45:29;10;10;
73623;PMS5003;61921;53.226;-1.296;2022-12-16T05:47:54;16;11;
73623;PMS5003;61921;53.226;-1.296;2022-12-16T05:50:20;14;11;
73623;PMS5003;61921;53.226;-1.296;2022-12-16T05:52:48;15;12;
73623;PMS5003;61921;53.226;-1.296;2022-12-16T05:55:10;13;11;
73623;PMS5003;61921;53.226;-1.296;2022-12-16T05:57:35;15;12;
73623;PMS5003;61921;53.226;-1.296;2022-12-16T06:00:00;12;10;
73623;PMS5003;61921;53.226;-1.296;2022-12-16T06:02:25;11;11;
73623;PMS5003;61921;53.226;-1.296;2022-12-16T06:04:51;12;12;
73623;PMS5003;61921;53.226;-1.296;2022-12-16T06:07:17;15;12;
73623;PMS5003;61921;53.226;-1.296;2022-12-16T06:09:43;10;10;
73623;PMS5003;61921;53.226;-1.296;2022-12-16T06:12:08;16;13;
73623;PMS5003;61921;53.226;-1.296;2022-12-16T06:14:34;16;13;
73623;PMS5003;61921;53.226;-1.296;2022-12-16T06:16:59;10;8;
73623;PMS5003;61921;53.226;-1.296;2022-12-16T06:19:24;10;10;
73623;PMS5003;61921;53.226;-1.296;2022-12-16T06:21:50;17;13;
73623;PMS5003;61921;53.226;-1.296;2022-12-16T06:24:15;15;11;
73623;PMS5003;61921;53.226;-1.296;2022-12-16T06:26:41;16;13;
73623;PMS5003;61921;53.226;-1.296;2022-12-16T06:29:07;17;17;
73623;PMS5003;61921;53.226;-1.296;2022-12-16T06:31:32;31;25;
73623;PMS5003;61921;53.226;-1.296;2022-12-16T06:33:58;32;30;
73623;PMS5003;61921;53.226;-1.296;2022-12-16T06:36:23;39;32;
73623;PMS5003;61921;53.226;-1.296;2022-12-16T06:38:49;33;30;
73623;PMS5003;61921;53.226;-1.296;2022-12-16T06:41:14;31;26;
73623;PMS5003;61921;53.226;-1.296;2022-12-16T06:43:40;23;22;
73623;PMS5003;61921;53.226;-1.296;2022-12-16T06:46:06;23;21;
73623;PMS5003;61921;53.226;-1.296;2022-12-16T06:48:31;20;18;
73623;PMS5003;61921;53.226;-1.296;2022-12-16T06:50:57;23;22;
73623;PMS5003;61921;53.226;-1.296;2022-12-16T06:53:22;18;18;
73623;PMS5003;61921;53.226;-1.296;2022-12-16T06:55:47;26;22;
73623;PMS5003;61921;53.226;-1.296;2022-12-16T06:58:13;25;21;
73623;PMS5003;61921;53.226;-1.296;2022-12-16T07:00:38;22;21;
73623;PMS5003;61921;53.226;-1.296;2022-12-16T07:03:03;22;18;
73623;PMS5003;61921;53.226;-1.296;2022-12-16T07:05:29;25;20;
73623;PMS5003;61921;53.226;-1.296;2022-12-16T07:07:55;26;26;
73623;PMS5003;61921;53.226;-1.296;2022-12-16T07:10:20;28;18;
73623;PMS5003;61921;53.226;-1.296;2022-12-16T07:12:46;23;18;
73623;PMS5003;61921;53.226;-1.296;2022-12-16T07:15:12;36;27;
73623;PMS5003;61921;53.226;-1.296;2022-12-16T07:17:37;40;27;
73623;PMS5003;61921;53.226;-1.296;2022-12-16T07:20:02;35;27;
73623;PMS5003;61921;53.226;-1.296;2022-12-16T07:22:27;69;64;
73623;PMS5003;61921;53.226;-1.296;2022-12-16T07:24:53;115;101;
73623;PMS5003;61921;53.226;-1.296;2022-12-16T07:27:19;117;110;
73623;PMS5003;61921;53.226;-1.296;2022-12-16T07:29:44;92;83;
73623;PMS5003;61921;53.226;-1.296;2022-12-16T07:32:09;67;63;
73623;PMS5003;61921;53.226;-1.296;2022-12-16T07:34:35;41;38;
73623;PMS5003;61921;53.226;-1.296;2022-12-16T07:37:00;43;40;
73623;PMS5003;61921;53.226;-1.296;2022-12-16T07:39:26;42;37;
73623;PMS5003;61921;53.226;-1.296;2022-12-16T07:41:51;31;31;
73623;PMS5003;61921;53.226;-1.296;2022-12-16T07:44:16;26;25;
73623;PMS5003;61921;53.226;-1.296;2022-12-16T07:46:42;36;31;
73623;PMS5003;61921;53.226;-1.296;2022-12-16T07:49:08;27;22;
73623;PMS5003;61921;53.226;-1.296;2022-12-16T07:51:33;21;17;
73623;PMS5003;61921;53.226;-1.296;2022-12-16T07:53:59;26;22;
73623;PMS5003;61921;53.226;-1.296;2022-12-16T07:56:24;25;22;
73623;PMS5003;61921;53.226;-1.296;2022-12-16T07:58:50;26;22;
73623;PMS5003;61921;53.226;-1.296;2022-12-16T08:01:15;30;27;
73623;PMS5003;61921;53.226;-1.296;2022-12-16T08:03:40;34;29;
73623;PMS5003;61921;53.226;-1.296;2022-12-16T08:06:05;34;29;
73623;PMS5003;61921;53.226;-1.296;2022-12-16T08:08:30;39;35;
73623;PMS5003;61921;53.226;-1.296;2022-12-16T08:10:57;29;25;
73623;PMS5003;61921;53.226;-1.296;2022-12-16T08:13:22;26;25;
73623;PMS5003;61921;53.226;-1.296;2022-12-16T08:15:48;23;22;
73623;PMS5003;61921;53.226;-1.296;2022-12-16T08:18:13;25;22;
73623;PMS5003;61921;53.226;-1.296;2022-12-16T08:20:38;39;32;
73623;PMS5003;61921;53.226;-1.296;2022-12-16T08:23:04;26;21;
73623;PMS5003;61921;53.226;-1.296;2022-12-16T08:25:30;36;30;
73623;PMS5003;61921;53.226;-1.296;2022-12-16T08:27:55;36;32;
73623;PMS5003;61921;53.226;-1.296;2022-12-16T08:30:21;33;30;
73623;PMS5003;61921;53.226;-1.296;2022-12-16T08:32:47;37;33;
73623;PMS5003;61921;53.226;-1.296;2022-12-16T08:35:13;45;37;
73623;PMS5003;61921;53.226;-1.296;2022-12-16T08:37:38;53;47;
73623;PMS5003;61921;53.226;-1.296;2022-12-16T08:40:04;31;31;
73623;PMS5003;61921;53.226;-1.296;2022-12-16T08:42:28;35;28;
73623;PMS5003;61921;53.226;-1.296;2022-12-16T08:44:54;32;28;
73623;PMS5003;61921;53.226;-1.296;2022-12-16T08:47:19;40;28;
73623;PMS5003;61921;53.226;-1.296;2022-12-16T08:49:45;50;45;
73623;PMS5003;61921;53.226;-1.296;2022-12-16T08:52:11;55;50;
73623;PMS5003;61921;53.226;-1.296;2022-12-16T08:54:36;41;38;
73623;PMS5003;61921;53.226;-1.296;2022-12-16T08:57:01;31;26;
73623;PMS5003;61921;53.226;-1.296;2022-12-16T08:59:27;33;28;
73623;PMS5003;61921;53.226;-1.296;2022-12-16T09:01:52;41;36;
73623;PMS5003;61921;53.226;-1.296;2022-12-16T09:04:17;28;28;
73623;PMS5003;61921;53.226;-1.296;2022-12-16T09:06:43;39;36;
73623;PMS5003;61921;53.226;-1.296;2022-12-16T09:09:08;38;32;
73623;PMS5003;61921;53.226;-1.296;2022-12-16T09:11:33;34;31;
73623;PMS5003;61921;53.226;-1.296;2022-12-16T09:13:58;37;35;
73623;PMS5003;61921;53.226;-1.296;2022-12-16T09:16:24;37;31;
73623;PMS5003;61921;53.226;-1.296;2022-12-16T09:18:50;68;58;
73623;PMS5003;61921;53.226;-1.296;2022-12-16T09:21:15;63;55;
73623;PMS5003;61921;53.226;-1.296;2022-12-16T09:23:42;56;48;
73623;PMS5003;61921;53.226;-1.296;2022-12-16T09:26:07;65;57;
73623;PMS5003;61921;53.226;-1.296;2022-12-16T09:28:32;37;33;
73623;PMS5003;61921;53.226;-1.296;2022-12-16T09:30:58;33;29;
73623;PMS5003;61921;53.226;-1.296;2022-12-16T09:33:24;37;33;
73623;PMS5003;61921;53.226;-1.296;2022-12-16T09:35:49;46;36;
73623;PMS5003;61921;53.226;-1.296;2022-12-16T09:38:14;35;32;
73623;PMS5003;61921;53.226;-1.296;2022-12-16T09:40:40;35;31;
73623;PMS5003;61921;53.226;-1.296;2022-12-16T09:43:07;43;37;
73623;PMS5003;61921;53.226;-1.296;2022-12-16T09:45:32;42;33;
73623;PMS5003;61921;53.226;-1.296;2022-12-16T09:47:59;38;33;
73623;PMS5003;61921;53.226;-1.296;2022-12-16T09:50:22;33;28;
73623;PMS5003;61921;53.226;-1.296;2022-12-16T09:52:47;43;39;
73623;PMS5003;61921;53.226;-1.296;2022-12-16T09:55:18;43;36;
73623;PMS5003;61921;53.226;-1.296;2022-12-16T09:57:37;38;31;
73623;PMS5003;61921;53.226;-1.296;2022-12-16T10:00:04;34;33;
73623;PMS5003;61921;53.226;-1.296;2022-12-16T10:02:27;36;32;
73623;PMS5003;61921;53.226;-1.296;2022-12-16T10:04:53;34;28;
73623;PMS5003;61921;53.226;-1.296;2022-12-16T10:07:19;36;34;
73623;PMS5003;61921;53.226;-1.296;2022-12-16T10:09:45;46;39;
73623;PMS5003;61921;53.226;-1.296;2022-12-16T10:12:11;55;42;
73623;PMS5003;61921;53.226;-1.296;2022-12-16T10:14:37;43;37;
73623;PMS5003;61921;53.226;-1.296;2022-12-16T10:17:02;42;35;
73623;PMS5003;61921;53.226;-1.296;2022-12-16T10:19:28;50;43;
73623;PMS5003;61921;53.226;-1.296;2022-12-16T10:21:53;34;29;
73623;PMS5003;61921;53.226;-1.296;2022-12-16T10:24:20;34;30;
73623;PMS5003;61921;53.226;-1.296;2022-12-16T10:26:45;43;36;
73623;PMS5003;61921;53.226;-1.296;2022-12-16T10:29:11;37;33;
73623;PMS5003;61921;53.226;-1.296;2022-12-16T10:31:34;34;29;
73623;PMS5003;61921;53.226;-1.296;2022-12-16T10:33:59;37;33;
73623;PMS5003;61921;53.226;-1.296;2022-12-16T10:36:24;29;28;
73623;PMS5003;61921;53.226;-1.296;2022-12-16T10:38:50;32;32;
73623;PMS5003;61921;53.226;-1.296;2022-12-16T10:41:15;49;44;
73623;PMS5003;61921;53.226;-1.296;2022-12-16T10:43:41;26;23;
73623;PMS5003;61921;53.226;-1.296;2022-12-16T10:46:08;39;32;
73623;PMS5003;61921;53.226;-1.296;2022-12-16T10:48:32;29;28;
73623;PMS5003;61921;53.226;-1.296;2022-12-16T10:50:58;30;28;
73623;PMS5003;61921;53.226;-1.296;2022-12-16T10:53:24;36;32;
73623;PMS5003;61921;53.226;-1.296;2022-12-16T10:55:51;46;38;
73623;PMS5003;61921;53.226;-1.296;2022-12-16T10:58:15;31;29;
73623;PMS5003;61921;53.226;-1.296;2022-12-16T11:00:41;24;22;
73623;PMS5003;61921;53.226;-1.296;2022-12-16T11:05:31;27;27;
73623;PMS5003;61921;53.226;-1.296;2022-12-16T11:07:55;31;30;
73623;PMS5003;61921;53.226;-1.296;2022-12-16T11:10:27;27;26;
73623;PMS5003;61921;53.226;-1.296;2022-12-16T11:12:45;30;24;
73623;PMS5003;61921;53.226;-1.296;2022-12-16T11:15:18;34;31;
73623;PMS5003;61921;53.226;-1.296;2022-12-16T11:17:36;40;32;
73623;PMS5003;61921;53.226;-1.296;2022-12-16T11:20:06;39;36;
73623;PMS5003;61921;53.226;-1.296;2022-12-16T11:22:27;31;27;
73623;PMS5003;61921;53.226;-1.296;2022-12-16T11:27:21;29;25;
73623;PMS5003;61921;53.226;-1.296;2022-12-16T11:29:50;33;28;
73623;PMS5003;61921;53.226;-1.296;2022-12-16T11:32:11;45;35;
73623;PMS5003;61921;53.226;-1.296;2022-12-16T11:34:35;34;30;
73623;PMS5003;61921;53.226;-1.296;2022-12-16T11:37:00;51;46;
73623;PMS5003;61921;53.226;-1.296;2022-12-16T11:39:26;49;42;
73623;PMS5003;61921;53.226;-1.296;2022-12-16T11:41:52;62;53;
73623;PMS5003;61921;53.226;-1.296;2022-12-16T11:44:18;51;44;
73623;PMS5003;61921;53.226;-1.296;2022-12-16T11:46:42;44;36;
73623;PMS5003;61921;53.226;-1.296;2022-12-16T11:49:10;48;40;
73623;PMS5003;61921;53.226;-1.296;2022-12-16T11:51:34;55;47;
73623;PMS5003;61921;53.226;-1.296;2022-12-16T11:54:07;62;56;
73623;PMS5003;61921;53.226;-1.296;2022-12-16T11:56:25;41;37;
73623;PMS5003;61921;53.226;-1.296;2022-12-16T11:58:50;36;31;
73623;PMS5003;61921;53.226;-1.296;2022-12-16T12:01:16;46;44;
73623;PMS5003;61921;53.226;-1.296;2022-12-16T12:03:41;28;27;
73623;PMS5003;61921;53.226;-1.296;2022-12-16T12:06:08;38;34;
73623;PMS5003;61921;53.226;-1.296;2022-12-16T12:08:32;24;22;
73623;PMS5003;61921;53.226;-1.296;2022-12-16T12:11:00;20;19;
73623;PMS5003;61921;53.226;-1.296;2022-12-16T12:13:28;28;28;
73623;PMS5003;61921;53.226;-1.296;2022-12-16T12:15:48;34;25;
73623;PMS5003;61921;53.226;-1.296;2022-12-16T12:18:14;41;36;
73623;PMS5003;61921;53.226;-1.296;2022-12-16T12:20:39;15;15;
73623;PMS5003;61921;53.226;-1.296;2022-12-16T12:23:03;20;20;
73623;PMS5003;61921;53.226;-1.296;2022-12-16T12:25:29;24;22;
73623;PMS5003;61921;53.226;-1.296;2022-12-16T12:27:54;23;21;
73623;PMS5003;61921;53.226;-1.296;2022-12-16T12:30:19;22;21;
73623;PMS5003;61921;53.226;-1.296;2022-12-16T12:32:46;30;25;
73623;PMS5003;61921;53.226;-1.296;2022-12-16T12:35:16;35;30;
73623;PMS5003;61921;53.226;-1.296;2022-12-16T12:37:37;33;30;
73623;PMS5003;61921;53.226;-1.296;2022-12-16T12:40:02;24;23;
73623;PMS5003;61921;53.226;-1.296;2022-12-16T12:42:27;27;24;
73623;PMS5003;61921;53.226;-1.296;2022-12-16T12:44:55;42;38;
73623;PMS5003;61921;53.226;-1.296;2022-12-16T12:47:17;25;18;
73623;PMS5003;61921;53.226;-1.296;2022-12-16T12:49:43;29;24;
73623;PMS5003;61921;53.226;-1.296;2022-12-16T12:52:10;35;27;
73623;PMS5003;61921;53.226;-1.296;2022-12-16T12:54:35;29;26;
73623;PMS5003;61921;53.226;-1.296;2022-12-16T12:56:58;25;22;
73623;PMS5003;61921;53.226;-1.296;2022-12-16T12:59:24;26;23;
73623;PMS5003;61921;53.226;-1.296;2022-12-16T13:01:49;33;28;
73623;PMS5003;61921;53.226;-1.296;2022-12-16T13:04:15;28;23;
73623;PMS5003;61921;53.226;-1.296;2022-12-16T13:06:39;25;23;
73623;PMS5003;61921;53.226;-1.296;2022-12-16T13:11:31;27;24;
73623;PMS5003;61921;53.226;-1.296;2022-12-16T13:13:56;27;25;
73623;PMS5003;61921;53.226;-1.296;2022-12-16T13:18:47;25;24;
73623;PMS5003;61921;53.226;-1.296;2022-12-16T13:23:38;31;28;
73623;PMS5003;61921;53.226;-1.296;2022-12-16T13:26:03;27;24;
73623;PMS5003;61921;53.226;-1.296;2022-12-16T13:28:29;26;24;
73623;PMS5003;61921;53.226;-1.296;2022-12-16T13:30:59;27;26;
73623;PMS5003;61921;53.226;-1.296;2022-12-16T13:33:23;31;29;
73623;PMS5003;61921;53.226;-1.296;2022-12-16T13:43:00;27;23;
73623;PMS5003;61921;53.226;-1.296;2022-12-16T13:45:30;25;21;
73623;PMS5003;61921;53.226;-1.296;2022-12-16T13:47:58;24;20;
73623;PMS5003;61921;53.226;-1.296;2022-12-16T13:52:42;29;22;
73623;PMS5003;61921;53.226;-1.296;2022-12-16T13:55:13;22;22;
73623;PMS5003;61921;53.226;-1.296;2022-12-16T13:57:35;24;20;
73623;PMS5003;61921;53.226;-1.296;2022-12-16T13:59:58;22;22;
73623;PMS5003;61921;53.226;-1.296;2022-12-16T14:02:25;21;21;
73623;PMS5003;61921;53.226;-1.296;2022-12-16T14:04:49;21;20;
73623;PMS5003;61921;53.226;-1.296;2022-12-16T14:07:14;24;22;
73623;PMS5003;61921;53.226;-1.296;2022-12-16T14:09:40;21;20;
73623;PMS5003;61921;53.226;-1.296;2022-12-16T14:12:08;23;21;
73623;PMS5003;61921;53.226;-1.296;2022-12-16T14:14:31;23;22;
73623;PMS5003;61921;53.226;-1.296;2022-12-16T14:16:57;26;21;
73623;PMS5003;61921;53.226;-1.296;2022-12-16T14:19:23;26;23;
73623;PMS5003;61921;53.226;-1.296;2022-12-16T14:21:48;22;21;
73623;PMS5003;61921;53.226;-1.296;2022-12-16T14:24:17;27;26;
73623;PMS5003;61921;53.226;-1.296;2022-12-16T14:26:37;29;26;
73623;PMS5003;61921;53.226;-1.296;2022-12-16T14:29:03;30;27;
73623;PMS5003;61921;53.226;-1.296;2022-12-16T14:31:29;28;25;
73623;PMS5003;61921;53.226;-1.296;2022-12-16T14:33:54;28;24;
73623;PMS5003;61921;53.226;-1.296;2022-12-16T14:36:21;33;29;
73623;PMS5003;61921;53.226;-1.296;2022-12-16T14:38:46;24;21;
73623;PMS5003;61921;53.226;-1.296;2022-12-16T14:41:10;24;21;
73623;PMS5003;61921;53.226;-1.296;2022-12-16T14:43:35;22;20;
73623;PMS5003;61921;53.226;-1.296;2022-12-16T14:46:00;31;28;
73623;PMS5003;61921;53.226;-1.296;2022-12-16T14:48:28;32;28;
73623;PMS5003;61921;53.226;-1.296;2022-12-16T14:50:51;33;29;
73623;PMS5003;61921;53.226;-1.296;2022-12-16T14:53:17;34;32;
73623;PMS5003;61921;53.226;-1.296;2022-12-16T14:55:42;48;42;
73623;PMS5003;61921;53.226;-1.296;2022-12-16T14:58:08;41;39;
73623;PMS5003;61921;53.226;-1.296;2022-12-16T15:00:33;50;47;
73623;PMS5003;61921;53.226;-1.296;2022-12-16T15:03:00;27;27;
73623;PMS5003;61921;53.226;-1.296;2022-12-16T15:05:25;35;32;
73623;PMS5003;61921;53.226;-1.296;2022-12-16T15:07:49;35;30;
73623;PMS5003;61921;53.226;-1.296;2022-12-16T15:10:15;28;26;
73623;PMS5003;61921;53.226;-1.296;2022-12-16T15:12:41;48;44;
73623;PMS5003;61921;53.226;-1.296;2022-12-16T15:15:07;31;27;
73623;PMS5003;61921;53.226;-1.296;2022-12-16T15:17:34;26;25;
73623;PMS5003;61921;53.226;-1.296;2022-12-16T15:19:57;34;28;
73623;PMS5003;61921;53.226;-1.296;2022-12-16T15:22:21;38;37;
73623;PMS5003;61921;53.226;-1.296;2022-12-16T15:24:47;32;29;
73623;PMS5003;61921;53.226;-1.296;2022-12-16T15:27:13;33;32;
73623;PMS5003;61921;53.226;-1.296;2022-12-16T15:29:40;33;30;
73623;PMS5003;61921;53.226;-1.296;2022-12-16T15:32:06;37;33;
73623;PMS5003;61921;53.226;-1.296;2022-12-16T15:34:29;41;35;
73623;PMS5003;61921;53.226;-1.296;2022-12-16T15:36:55;40;35;
73623;PMS5003;61921;53.226;-1.296;2022-12-16T15:39:19;49;39;
73623;PMS5003;61921;53.226;-1.296;2022-12-16T15:41:45;42;42;
73623;PMS5003;61921;53.226;-1.296;2022-12-16T15:44:14;38;34;
73623;PMS5003;61921;53.226;-1.296;2022-12-16T15:46:35;48;40;
73623;PMS5003;61921;53.226;-1.296;2022-12-16T15:49:01;44;36;
73623;PMS5003;61921;53.226;-1.296;2022-12-16T15:51:28;40;39;
73623;PMS5003;61921;53.226;-1.296;2022-12-16T15:56:18;44;44;
73623;PMS5003;61921;53.226;-1.296;2022-12-16T15:58:42;43;39;
73623;PMS5003;61921;53.226;-1.296;2022-12-16T16:01:08;46;42;
73623;PMS5003;61921;53.226;-1.296;2022-12-16T16:03:34;47;44;
73623;PMS5003;61921;53.226;-1.296;2022-12-16T16:05:59;46;45;
73623;PMS5003;61921;53.226;-1.296;2022-12-16T16:08:25;43;43;
73623;PMS5003;61921;53.226;-1.296;2022-12-16T16:10:50;43;42;
73623;PMS5003;61921;53.226;-1.296;2022-12-16T16:13:16;61;51;
73623;PMS5003;61921;53.226;-1.296;2022-12-16T16:15:42;45;44;